Time;durP1;ratioP1;P1;durP2;ratioP2;P2;SDS_P1;SDS_P2;PMS_P1;PMS_P2;Temp;Humidity;BMP_temperature;BMP_pressure;BME280_temperature;BME280_humidity;BME280_pressure;Samples;Min_cycle;Max_cycle;Signal;HPM_P1;HPM_P2
2021/12/24 00:00:39;;;;;;;31.90;29.00;;;;;;;22.94;24.54;95271.66;4932449;28;103417;-49
2021/12/24 00:03:05;;;;;;;30.27;27.67;;;;;;;22.95;24.02;95287.34;4938626;28;102729;-49
2021/12/24 00:05:32;;;;;;;32.97;30.03;;;;;;;22.95;24.26;95279.34;4936789;28;103570;-48
2021/12/24 00:07:58;;;;;;;32.80;29.90;;;;;;;22.94;24.08;95277.78;4939679;28;103081;-48
2021/12/24 00:10:25;;;;;;;34.50;31.47;;;;;;;22.93;24.10;95254.88;4933290;28;103330;-48
2021/12/24 00:13:15;;;;;;;31.50;28.63;;;;;;;22.94;24.14;95245.78;4937564;28;103271;-49
2021/12/24 00:18:30;;;;;;;32.23;29.23;;;;;;;22.94;24.33;95261.78;4936517;28;102757;-48
2021/12/24 00:37:19;;;;;;;34.20;31.17;;;;;;;22.93;24.35;95270.88;4937778;28;102710;-48
2021/12/24 00:39:54;;;;;;;34.73;31.73;;;;;;;22.92;24.42;95263.16;4938544;28;102782;-49
2021/12/24 00:42:20;;;;;;;35.37;32.17;;;;;;;22.91;23.88;95258.94;4936415;28;102687;-48
2021/12/24 00:44:45;;;;;;;35.47;32.40;;;;;;;22.90;24.30;95260.03;4933174;28;103025;-48
2021/12/24 00:47:11;;;;;;;34.50;31.37;;;;;;;22.89;23.98;95248.56;4936610;28;102805;-49
2021/12/24 00:49:36;;;;;;;36.77;33.47;;;;;;;22.89;24.24;95240.59;4938399;28;103245;-48
2021/12/24 00:52:18;;;;;;;35.63;32.43;;;;;;;22.88;24.35;95230.22;4936333;28;102822;-48
2021/12/24 00:57:27;;;;;;;34.83;31.63;;;;;;;22.88;24.19;95215.03;4937643;28;102665;-48
2021/12/24 00:59:53;;;;;;;33.37;30.57;;;;;;;22.89;23.96;95205.16;4937617;28;102770;-49
2021/12/24 01:02:19;;;;;;;33.70;30.80;;;;;;;22.88;23.88;95214.25;4935586;28;103027;-48
2021/12/24 01:04:44;;;;;;;35.70;32.60;;;;;;;22.88;23.94;95207.03;4936343;28;104443;-48
2021/12/24 01:07:10;;;;;;;34.13;31.23;;;;;;;22.87;24.46;95205.47;4934873;28;103116;-48
2021/12/24 01:09:36;;;;;;;33.53;30.63;;;;;;;22.88;23.92;95203.59;4940985;28;102799;-48
2021/12/24 01:12:02;;;;;;;31.13;28.53;;;;;;;22.88;24.16;95200.91;4941047;28;102941;-49
2021/12/24 01:14:29;;;;;;;33.63;30.57;;;;;;;22.86;24.36;95203.88;4941054;28;103445;-48
2021/12/24 01:17:09;;;;;;;34.80;31.73;;;;;;;22.87;23.93;95210.78;4934183;28;102923;-48
2021/12/24 01:19:37;;;;;;;36.03;32.73;;;;;;;22.86;24.14;95211.88;4940040;28;103871;-48
2021/12/24 01:22:21;;;;;;;32.67;29.87;;;;;;;22.87;23.99;95212.66;4940507;28;102973;-48
2021/12/24 01:25:14;;;;;;;33.93;30.83;;;;;;;22.87;24.19;95210.00;4939587;28;102798;-49
2021/12/24 01:28:01;;;;;;;33.37;30.40;;;;;;;22.85;24.22;95196.97;4933460;28;102824;-48
2021/12/24 01:38:26;;;;;;;34.07;31.03;;;;;;;22.84;24.05;95192.72;4935985;28;102688;-48
2021/12/24 01:43:28;;;;;;;35.10;32.07;;;;;;;22.83;23.93;95175.16;4937628;28;103050;-48
2021/12/24 01:45:56;;;;;;;34.13;31.13;;;;;;;22.84;23.81;95170.63;4939808;28;102743;-48
2021/12/24 01:48:22;;;;;;;35.90;32.70;;;;;;;22.84;24.27;95174.06;4939226;28;102702;-49
2021/12/24 01:50:51;;;;;;;33.80;30.70;;;;;;;22.85;23.94;95172.22;4935112;28;102815;-49
2021/12/24 01:53:20;;;;;;;33.37;30.47;;;;;;;22.84;24.12;95174.06;4940813;28;103324;-49
2021/12/24 01:55:50;;;;;;;31.90;29.10;;;;;;;22.84;23.89;95178.59;4940329;28;102663;-49
2021/12/24 01:58:24;;;;;;;33.87;30.93;;;;;;;22.83;23.93;95180.50;4939829;28;102774;-48
2021/12/24 02:00:52;;;;;;;33.63;30.73;;;;;;;22.84;24.17;95174.06;4935788;28;103169;-49
2021/12/24 02:03:18;;;;;;;33.57;30.67;;;;;;;22.83;23.89;95169.84;4939140;28;102843;-48
2021/12/24 02:05:45;;;;;;;33.93;30.93;;;;;;;22.83;23.97;95164.50;4940867;28;102775;-48
2021/12/24 02:08:12;;;;;;;33.50;30.60;;;;;;;22.81;23.87;95158.66;4940589;28;102807;-48
2021/12/24 02:10:38;;;;;;;32.60;29.80;;;;;;;22.80;23.96;95157.88;4939315;28;102970;-48
2021/12/24 02:13:04;;;;;;;31.87;29.07;;;;;;;22.80;24.04;95149.88;4933585;28;103053;-48
2021/12/24 02:28:48;;;;;;;31.40;28.60;;;;;;;22.78;23.96;95133.41;4920819;28;102815;-48
2021/12/24 02:31:26;;;;;;;31.97;29.00;;;;;;;22.79;23.86;95134.19;4920893;28;103301;-48
2021/12/24 02:33:53;;;;;;;33.00;30.10;;;;;;;22.79;24.11;95126.22;4915431;28;102880;-48
2021/12/24 02:36:20;;;;;;;32.30;29.23;;;;;;;22.78;23.60;95127.31;4919528;28;102712;-48
2021/12/24 02:38:46;;;;;;;31.10;28.00;;;;;;;22.79;23.89;95120.88;4919484;28;102855;-49
2021/12/24 02:41:13;;;;;;;33.90;30.70;;;;;;;22.79;24.04;95107.56;4920073;28;103181;-48
2021/12/24 02:43:39;;;;;;;33.13;30.13;;;;;;;22.76;24.01;95103.63;4917041;28;103364;-48
2021/12/24 02:46:13;;;;;;;34.10;31.20;;;;;;;22.79;23.96;95094.25;4915187;28;103338;-48
2021/12/24 02:54:11;;;;;;;39.40;36.00;;;;;;;22.76;23.97;95087.66;4917445;28;102730;-48
2021/12/24 02:56:38;;;;;;;37.27;34.07;;;;;;;22.78;23.65;95082.03;4915764;28;103439;-48
2021/12/24 02:59:11;;;;;;;36.90;33.63;;;;;;;22.77;23.49;95080.44;4911433;28;103045;-48
2021/12/24 03:01:40;;;;;;;40.80;37.17;;;;;;;22.75;23.73;95069.31;4919361;28;102732;-48
2021/12/24 03:04:07;;;;;;;36.00;32.87;;;;;;;22.75;23.87;95077.31;4919593;28;102905;-48
2021/12/24 03:06:43;;;;;;;36.40;33.13;;;;;;;22.75;23.70;95064.00;4914935;28;103461;-48
2021/12/24 03:09:14;;;;;;;40.43;36.67;;;;;;;22.74;24.08;95065.88;4919624;28;102714;-48
2021/12/24 03:11:39;;;;;;;38.17;34.33;;;;;;;22.74;23.74;95065.06;4919163;28;102810;-48
2021/12/24 03:14:07;;;;;;;38.70;35.30;;;;;;;22.72;23.80;95068.03;4919715;28;102930;-48
2021/12/24 03:16:34;;;;;;;37.50;34.10;;;;;;;22.73;23.56;95079.47;4918295;28;102823;-48
2021/12/24 03:19:00;;;;;;;37.50;34.30;;;;;;;22.72;23.77;95070.72;4914765;28;102743;-48
2021/12/24 03:21:32;;;;;;;35.80;32.80;;;;;;;22.71;23.24;95066.47;4917105;28;102933;-48
2021/12/24 03:26:39;;;;;;;34.87;31.87;;;;;;;22.73;23.38;95052.84;4915165;28;103367;-48
2021/12/24 03:29:07;;;;;;;36.70;33.60;;;;;;;22.74;23.32;95059.75;4913620;28;102619;-49
2021/12/24 03:31:34;;;;;;;34.03;30.93;;;;;;;22.74;23.81;95070.41;4900678;28;102841;-49
2021/12/24 03:34:00;;;;;;;36.67;33.27;;;;;;;22.72;23.66;95054.72;4912295;28;102784;-49
2021/12/24 03:36:28;;;;;;;34.30;31.27;;;;;;;22.73;23.70;95066.16;4919585;28;102782;-49
2021/12/24 03:38:55;;;;;;;32.70;29.90;;;;;;;22.72;24.01;95060.06;4919282;28;102710;-49
2021/12/24 03:41:22;;;;;;;33.07;30.07;;;;;;;22.72;23.92;95054.72;4915255;28;104889;-49
2021/12/24 03:43:47;;;;;;;33.90;30.80;;;;;;;22.72;23.55;95060.06;4919204;28;103194;-49
2021/12/24 03:46:17;;;;;;;34.93;31.77;;;;;;;22.71;23.54;95047.03;4919149;28;102708;-49
2021/12/24 03:56:33;;;;;;;33.70;30.63;;;;;;;22.71;23.69;95052.38;4912707;28;102900;-49
2021/12/24 03:58:59;;;;;;;31.50;28.80;;;;;;;22.71;23.63;95036.38;4919034;28;102928;-49
2021/12/24 04:01:25;;;;;;;31.57;28.67;;;;;;;22.70;23.61;95040.16;4914183;28;102827;-49
2021/12/24 04:03:51;;;;;;;32.87;29.97;;;;;;;22.70;23.91;95040.16;4918844;28;102709;-49
2021/12/24 04:06:17;;;;;;;31.67;28.67;;;;;;;22.71;23.81;95055.03;4917666;28;102885;-49
2021/12/24 04:08:43;;;;;;;31.77;28.83;;;;;;;22.70;23.42;95037.47;4918711;28;103010;-49
2021/12/24 04:11:08;;;;;;;30.60;27.90;;;;;;;22.71;23.66;95039.06;4910245;28;102843;-49
2021/12/24 04:13:34;;;;;;;31.53;28.73;;;;;;;22.72;23.12;95029.97;4913404;28;103077;-49
2021/12/24 04:16:01;;;;;;;29.23;26.70;;;;;;;22.71;23.17;95039.06;4921289;28;102989;-49
2021/12/24 04:18:43;;;;;;;30.43;27.73;;;;;;;22.78;23.43;95029.53;4930491;28;102891;-48
2021/12/24 04:26:38;;;;;;;28.03;25.47;;;;;;;22.98;22.31;95038.16;4925140;28;102764;-48
2021/12/24 04:29:04;;;;;;;27.93;25.53;;;;;;;23.01;22.43;95034.88;4930903;28;102733;-48
2021/12/24 04:31:43;;;;;;;27.30;24.87;;;;;;;23.02;22.72;95034.59;4935195;28;102972;-48
2021/12/24 04:34:10;;;;;;;27.07;24.67;;;;;;;23.04;22.19;95029.72;4927962;28;104151;-48
2021/12/24 04:39:51;;;;;;;25.67;23.47;;;;;;;23.07;21.89;95029.13;4876813;28;102690;-48
2021/12/24 05:04:33;;;;;;;23.57;21.40;;;;;;;23.01;22.20;95038.34;4923149;28;102851;-49
2021/12/24 05:07:08;;;;;;;23.60;21.53;;;;;;;22.98;22.62;95044.25;4939992;28;102774;-48
2021/12/24 05:09:38;;;;;;;23.40;21.30;;;;;;;22.96;22.04;95061.66;4938663;28;103446;-48
2021/12/24 05:12:04;;;;;;;23.53;21.33;;;;;;;22.95;22.58;95047.53;4940285;28;103096;-48
2021/12/24 05:14:31;;;;;;;23.60;21.50;;;;;;;22.94;22.69;95050.50;4930489;28;103621;-48
2021/12/24 05:17:17;;;;;;;23.70;21.47;;;;;;;22.90;22.79;95055.66;4934844;28;102900;-49
2021/12/24 05:22:30;;;;;;;22.73;20.37;;;;;;;22.95;23.87;95050.19;4941010;28;102775;-49
2021/12/24 05:24:57;;;;;;;21.87;19.83;;;;;;;22.91;23.72;95043.91;4941941;28;102763;-49
2021/12/24 05:27:23;;;;;;;21.30;19.20;;;;;;;22.86;23.69;95062.69;4940663;28;102781;-49
2021/12/24 05:29:49;;;;;;;19.93;17.87;;;;;;;22.85;24.05;95053.13;4936276;28;103324;-49
2021/12/24 05:32:14;;;;;;;21.27;19.00;;;;;;;22.84;24.07;95059.53;4940819;28;102851;-49
2021/12/24 05:34:40;;;;;;;22.17;20.17;;;;;;;22.82;24.07;95053.72;4940943;28;102887;-49
2021/12/24 05:37:06;;;;;;;21.67;19.67;;;;;;;22.82;24.30;95048.38;4939934;28;103737;-49
2021/12/24 05:39:31;;;;;;;20.90;19.10;;;;;;;22.82;24.38;95045.72;4940989;28;102903;-49
2021/12/24 05:41:57;;;;;;;21.13;18.90;;;;;;;22.80;24.38;95050.53;4936007;28;102864;-49
2021/12/24 05:44:22;;;;;;;21.40;19.30;;;;;;;22.77;24.76;95043.94;4940615;28;103005;-49
2021/12/24 05:46:48;;;;;;;21.00;18.90;;;;;;;22.86;24.14;95049.38;4939914;28;103086;-49
2021/12/24 05:49:14;;;;;;;20.10;18.10;;;;;;;22.89;24.67;95040.78;4939881;28;103594;-49
2021/12/24 05:51:40;;;;;;;21.07;19.10;;;;;;;22.86;24.64;95037.94;4934518;28;102777;-48
2021/12/24 05:54:06;;;;;;;21.20;19.00;;;;;;;22.85;24.61;95023.81;4940588;28;104540;-47
2021/12/24 05:56:32;;;;;;;20.47;18.67;;;;;;;22.83;24.72;95020.66;4940559;28;103244;-48
2021/12/24 05:58:57;;;;;;;22.33;18.53;;;;;;;22.80;24.82;95011.38;4938284;28;102822;-48
2021/12/24 06:01:23;;;;;;;22.50;20.20;;;;;;;22.73;24.97;95012.91;4939583;28;102682;-47
2021/12/24 06:03:49;;;;;;;21.30;19.10;;;;;;;22.72;24.88;95008.66;4936130;28;103939;-48
2021/12/24 06:06:15;;;;;;;22.43;20.20;;;;;;;22.73;24.86;94995.03;4940582;28;102794;-48
2021/12/24 06:08:40;;;;;;;21.40;19.40;;;;;;;22.70;25.28;95013.50;4940127;28;103380;-48
2021/12/24 06:11:06;;;;;;;22.57;20.33;;;;;;;22.73;24.65;95012.91;4940853;28;102765;-48
2021/12/24 06:13:33;;;;;;;22.27;19.77;;;;;;;22.72;24.51;95003.34;4936430;28;103428;-48
2021/12/24 06:15:59;;;;;;;21.77;19.57;;;;;;;22.70;25.38;94994.88;4940021;28;103011;-49
2021/12/24 06:18:27;;;;;;;20.10;18.17;;;;;;;22.76;25.64;95015.75;4938888;28;103233;-49
2021/12/24 06:20:55;;;;;;;23.63;19.40;;;;;;;22.86;26.10;95009.41;4939854;28;102999;-49
2021/12/24 06:23:23;;;;;;;22.20;20.03;;;;;;;22.66;25.20;95015.97;4940936;28;102709;-47
2021/12/24 06:25:52;;;;;;;21.33;19.47;;;;;;;22.78;24.56;95020.75;4934908;28;103261;-47
2021/12/24 06:28:18;;;;;;;20.70;18.73;;;;;;;22.87;23.75;95040.28;4938463;28;102759;-47
2021/12/24 06:30:43;;;;;;;20.20;18.40;;;;;;;22.94;24.01;95037.97;4940323;28;102900;-47
2021/12/24 06:33:10;;;;;;;21.60;19.40;;;;;;;22.96;24.01;95040.31;4940246;28;103637;-47
2021/12/24 06:35:36;;;;;;;21.37;19.17;;;;;;;22.95;23.90;95058.19;4935375;28;103858;-47
2021/12/24 06:38:03;;;;;;;19.80;18.00;;;;;;;22.92;23.73;95061.47;4940218;28;102672;-47
2021/12/24 06:40:30;;;;;;;20.23;18.40;;;;;;;22.91;24.05;95056.44;4939879;28;102811;-47
2021/12/24 06:42:55;;;;;;;19.37;17.57;;;;;;;22.88;23.75;95071.16;4939412;28;103327;-47
2021/12/24 06:45:24;;;;;;;21.07;17.80;;;;;;;22.86;23.65;95070.69;4938442;28;102633;-47
2021/12/24 06:47:56;;;;;;;18.57;16.90;;;;;;;22.84;23.35;95064.84;4932759;28;102891;-47
2021/12/24 06:50:22;;;;;;;19.53;17.63;;;;;;;22.83;23.66;95068.59;4937005;28;102759;-47
2021/12/24 06:52:48;;;;;;;20.40;18.37;;;;;;;22.81;23.98;95073.41;4938977;28;102761;-47
2021/12/24 06:55:14;;;;;;;19.90;18.13;;;;;;;22.79;23.55;95051.63;4938674;28;103190;-47
2021/12/24 06:57:41;;;;;;;19.53;17.80;;;;;;;22.78;23.81;95044.72;4934033;28;103174;-47
2021/12/24 07:00:10;;;;;;;18.53;16.93;;;;;;;22.78;23.52;95050.06;4939606;28;102811;-47
2021/12/24 07:02:36;;;;;;;18.87;17.17;;;;;;;22.77;23.44;95043.16;4939102;28;102803;-47
2021/12/24 07:05:02;;;;;;;19.80;17.93;;;;;;;22.75;24.07;95026.69;4921931;28;102871;-48
2021/12/24 07:07:28;;;;;;;19.43;17.73;;;;;;;22.72;23.47;95045.94;4939887;28;103837;-47
2021/12/24 07:09:53;;;;;;;21.10;19.10;;;;;;;22.66;23.63;95034.63;4934782;28;104878;-47
2021/12/24 07:12:19;;;;;;;20.53;18.73;;;;;;;22.61;23.63;95039.28;4922953;28;102803;-48
2021/12/24 07:14:46;;;;;;;20.73;18.93;;;;;;;22.58;23.58;95037.22;4939289;28;102695;-47
2021/12/24 07:17:12;;;;;;;20.07;18.27;;;;;;;22.52;23.72;95037.34;4919795;28;102756;-47
2021/12/24 07:19:38;;;;;;;20.43;18.63;;;;;;;22.49;23.89;95048.59;4915251;28;102716;-47
2021/12/24 07:22:04;;;;;;;20.70;18.90;;;;;;;22.46;23.50;95029.78;4920280;28;102935;-47
2021/12/24 07:24:29;;;;;;;20.60;18.73;;;;;;;22.46;23.33;95037.75;4920510;28;103434;-47
2021/12/24 07:26:55;;;;;;;19.80;18.00;;;;;;;22.41;23.72;95025.34;4919876;28;102682;-47
2021/12/24 07:29:21;;;;;;;19.67;17.90;;;;;;;22.38;23.38;95033.94;4919764;28;103081;-47
2021/12/24 07:31:47;;;;;;;20.37;18.50;;;;;;;22.38;23.52;95028.63;4915452;28;102825;-47
2021/12/24 07:34:12;;;;;;;20.57;18.87;;;;;;;22.35;23.37;95036.44;4920165;28;102803;-47
2021/12/24 07:36:38;;;;;;;21.07;18.97;;;;;;;22.32;23.48;95027.16;4919950;28;102702;-47
2021/12/24 07:39:04;;;;;;;20.00;18.10;;;;;;;22.32;23.55;95037.78;4919719;28;103491;-47
2021/12/24 07:41:30;;;;;;;23.03;18.07;;;;;;;22.31;23.44;95036.22;4915584;28;102851;-47
2021/12/24 07:43:57;;;;;;;18.77;16.97;;;;;;;22.30;23.05;95034.66;4918898;28;103289;-47
2021/12/24 07:46:25;;;;;;;18.40;16.80;;;;;;;22.30;23.64;95034.66;4919959;28;102764;-47
2021/12/24 07:49:01;;;;;;;18.40;16.80;;;;;;;22.31;23.61;95025.56;4919594;28;102680;-47
2021/12/24 07:54:10;;;;;;;20.50;18.73;;;;;;;22.25;23.43;95028.66;4914050;28;102850;-47
2021/12/24 07:56:36;;;;;;;18.63;16.93;;;;;;;22.25;23.41;95028.66;4920475;28;103307;-47
2021/12/24 07:59:02;;;;;;;18.47;16.77;;;;;;;22.27;23.35;95035.25;4918669;28;102842;-47
2021/12/24 08:01:28;;;;;;;19.43;17.43;;;;;;;22.29;23.48;95051.72;4920155;28;102876;-47
2021/12/24 08:03:55;;;;;;;18.90;17.20;;;;;;;22.30;23.33;95039.19;4914477;28;103182;-47
2021/12/24 08:06:24;;;;;;;18.77;17.07;;;;;;;22.26;23.37;95039.00;4919500;28;102865;-47
2021/12/24 08:08:50;;;;;;;18.20;16.57;;;;;;;22.27;23.41;95040.56;4919293;28;102978;-47
2021/12/24 08:11:16;;;;;;;19.37;17.53;;;;;;;22.29;23.47;95041.06;4920318;28;103368;-47
2021/12/24 08:13:42;;;;;;;19.30;17.60;;;;;;;22.31;23.34;95043.41;4919710;28;102904;-47
2021/12/24 08:16:08;;;;;;;16.63;15.23;;;;;;;22.31;23.34;95040.75;4925425;28;103379;-47
2021/12/24 08:18:34;;;;;;;18.40;16.60;;;;;;;22.30;23.30;95034.66;4937148;28;102942;-47
2021/12/24 08:21:00;;;;;;;19.77;17.97;;;;;;;22.31;23.56;95035.44;4939343;28;103182;-47
2021/12/24 08:23:25;;;;;;;19.10;17.40;;;;;;;22.30;23.11;95045.28;4939193;28;102768;-47
2021/12/24 08:25:58;;;;;;;18.13;16.63;;;;;;;22.29;23.08;95026.97;4934569;28;102767;-47
2021/12/24 08:28:23;;;;;;;19.43;17.73;;;;;;;22.39;23.16;95021.44;4937529;28;103164;-47
2021/12/24 08:30:49;;;;;;;19.00;17.27;;;;;;;22.45;23.33;95023.66;4938876;28;102750;-47
2021/12/24 08:33:15;;;;;;;18.20;16.50;;;;;;;22.50;23.31;95007.56;4938177;28;103029;-47
2021/12/24 08:35:41;;;;;;;18.33;16.53;;;;;;;22.53;22.92;94998.22;4938394;28;103509;-46
2021/12/24 08:38:06;;;;;;;17.60;16.03;;;;;;;22.57;22.84;94995.72;4934485;28;102907;-46
2021/12/24 08:40:32;;;;;;;17.93;16.33;;;;;;;22.59;23.21;94988.22;4939039;28;103338;-46
2021/12/24 08:42:57;;;;;;;16.57;15.07;;;;;;;22.61;22.98;94997.47;4938391;28;103147;-46
2021/12/24 08:45:23;;;;;;;16.93;15.43;;;;;;;22.63;23.26;94984.63;4938586;28;102705;-47
2021/12/24 08:47:48;;;;;;;15.90;14.50;;;;;;;22.63;23.03;94979.31;4934027;28;102792;-47
2021/12/24 08:50:14;;;;;;;17.60;15.90;;;;;;;22.65;23.08;94976.34;4938531;28;102762;-47
2021/12/24 08:52:44;;;;;;;16.47;14.97;;;;;;;22.64;22.65;94980.09;4938738;28;103212;-47
2021/12/24 08:55:11;;;;;;;15.97;14.57;;;;;;;22.66;22.84;94988.56;4938700;28;102776;-47
2021/12/24 08:57:38;;;;;;;15.73;14.33;;;;;;;22.65;23.00;94984.31;4938012;28;102837;-47
2021/12/24 09:00:08;;;;;;;16.60;15.10;;;;;;;22.64;23.01;94983.53;4934138;28;102813;-47
2021/12/24 09:02:34;;;;;;;16.20;14.80;;;;;;;22.65;22.89;94973.66;4938461;28;103077;-47
2021/12/24 09:04:59;;;;;;;15.97;14.47;;;;;;;22.65;22.94;94987.78;4937535;28;102934;-47
2021/12/24 09:07:25;;;;;;;16.70;15.10;;;;;;;22.66;22.74;94981.34;4937136;28;102719;-47
2021/12/24 09:09:50;;;;;;;16.00;14.63;;;;;;;22.67;23.06;94982.13;4933649;28;102934;-47
2021/12/24 09:12:16;;;;;;;15.90;14.47;;;;;;;22.67;22.85;94985.59;4938442;28;103030;-46
2021/12/24 09:14:41;;;;;;;14.10;12.93;;;;;;;22.68;22.83;94978.41;4936779;28;103686;-46
2021/12/24 09:17:07;;;;;;;13.97;12.70;;;;;;;22.69;22.62;94974.66;4918164;28;103069;-47
2021/12/24 09:19:34;;;;;;;13.93;12.73;;;;;;;22.70;22.82;94968.25;4918672;28;102718;-47
2021/12/24 09:22:00;;;;;;;13.33;12.13;;;;;;;22.73;23.03;94962.28;4913489;28;103503;-47
2021/12/24 09:24:27;;;;;;;13.50;12.10;;;;;;;22.74;22.88;94956.66;4918697;28;102727;-47
2021/12/24 09:26:57;;;;;;;13.40;12.30;;;;;;;22.76;22.99;94962.47;4918590;28;103153;-47
2021/12/24 09:29:24;;;;;;;14.03;12.80;;;;;;;22.78;22.70;94962.16;4919846;28;102700;-47
2021/12/24 09:31:49;;;;;;;13.70;12.50;;;;;;;22.81;23.01;94948.22;4917823;28;102717;-47
2021/12/24 09:34:15;;;;;;;13.27;12.17;;;;;;;22.85;22.75;94964.44;4921456;28;103291;-47
2021/12/24 09:36:40;;;;;;;13.30;12.17;;;;;;;22.86;22.60;94950.03;4920462;28;102755;-47
2021/12/24 09:39:08;;;;;;;14.33;13.10;;;;;;;22.87;22.83;94941.72;4921777;28;102847;-47
2021/12/24 09:41:34;;;;;;;12.43;11.43;;;;;;;22.91;22.79;94948.00;4920640;28;102900;-47
2021/12/24 09:44:00;;;;;;;13.60;12.40;;;;;;;22.94;22.58;94943.94;4915803;28;102981;-47
2021/12/24 09:46:27;;;;;;;13.07;12.00;;;;;;;22.98;22.59;94934.22;4920692;28;102872;-47
2021/12/24 09:48:55;;;;;;;13.10;11.90;;;;;;;22.98;22.64;94921.69;4921169;28;103364;-47
2021/12/24 09:51:25;;;;;;;12.50;11.43;;;;;;;23.01;22.71;94929.09;4921617;28;102920;-47
2021/12/24 09:53:50;;;;;;;13.57;12.37;;;;;;;23.03;22.51;94923.47;4915684;28;103042;-47
2021/12/24 09:56:16;;;;;;;13.30;12.27;;;;;;;23.06;22.66;94926.28;4920162;28;102822;-47
2021/12/24 09:58:41;;;;;;;12.67;11.67;;;;;;;23.07;22.46;94919.84;4922007;28;103238;-47
2021/12/24 10:01:07;;;;;;;11.87;10.90;;;;;;;23.08;22.74;94916.09;4922200;28;103739;-47
2021/12/24 10:03:37;;;;;;;12.20;11.00;;;;;;;23.09;22.76;94917.66;4921578;28;102817;-47
2021/12/24 10:06:04;;;;;;;11.77;10.67;;;;;;;23.11;22.85;94918.16;4916494;28;103126;-47
2021/12/24 10:08:30;;;;;;;11.97;10.83;;;;;;;23.13;22.68;94903.72;4921343;28;102902;-47
2021/12/24 10:11:12;;;;;;;11.97;10.97;;;;;;;23.11;22.76;94894.16;4920483;28;103371;-47
2021/12/24 10:13:43;;;;;;;12.90;11.80;;;;;;;23.12;22.57;94889.63;4920786;28;103781;-48
2021/12/24 10:16:19;;;;;;;11.83;10.80;;;;;;;23.13;22.73;94893.06;4927233;28;102793;-47
2021/12/24 10:18:51;;;;;;;12.07;11.07;;;;;;;23.14;22.76;94878.63;4938850;28;102703;-47
2021/12/24 10:21:25;;;;;;;11.77;10.87;;;;;;;23.13;22.83;94874.41;4940850;28;103243;-47
2021/12/24 10:24:02;;;;;;;11.30;10.40;;;;;;;23.14;22.83;94875.97;4940736;28;103388;-47
2021/12/24 10:26:34;;;;;;;11.50;10.40;;;;;;;23.14;22.50;94875.97;4939561;28;102834;-47
2021/12/24 10:29:08;;;;;;;12.27;11.27;;;;;;;23.15;22.93;94869.56;4936639;28;102704;-47
2021/12/24 10:31:43;;;;;;;11.73;10.63;;;;;;;23.15;22.80;94864.22;4939771;28;103482;-47
2021/12/24 10:34:11;;;;;;;11.90;10.90;;;;;;;23.16;22.71;94860.47;4939938;28;104423;-47
2021/12/24 10:36:56;;;;;;;10.93;10.03;;;;;;;23.17;22.62;94846.81;4939357;28;102629;-47
2021/12/24 10:39:45;;;;;;;11.80;10.77;;;;;;;23.18;22.69;94839.59;4934692;28;102763;-47
2021/12/24 10:42:15;;;;;;;10.67;9.80;;;;;;;23.17;22.99;94840.69;4939042;28;103401;-47
2021/12/24 10:44:43;;;;;;;11.00;10.10;;;;;;;23.18;22.52;94829.75;4939884;28;102724;-47
2021/12/24 10:47:18;;;;;;;11.30;10.40;;;;;;;23.20;22.51;94837.44;4939876;28;102751;-47
2021/12/24 10:50:03;;;;;;;10.07;9.07;;;;;;;23.19;22.93;94831.31;4935526;28;102782;-47
2021/12/24 10:52:58;;;;;;;10.80;9.80;;;;;;;23.20;22.51;94826.78;4940934;28;102772;-47
2021/12/24 10:55:34;;;;;;;10.93;10.03;;;;;;;23.19;22.59;94820.66;4938571;28;102687;-47
2021/12/24 10:58:00;;;;;;;9.60;8.80;;;;;;;23.19;23.02;94814.56;4939874;28;103131;-47
2021/12/24 11:00:38;;;;;;;10.47;9.67;;;;;;;23.18;22.91;94807.63;4935114;28;102660;-47
2021/12/24 11:03:11;;;;;;;9.90;9.10;;;;;;;23.17;22.71;94803.38;4939917;28;102712;-47
2021/12/24 11:05:38;;;;;;;10.67;9.77;;;;;;;23.17;22.63;94800.72;4939016;28;103480;-47
2021/12/24 11:08:07;;;;;;;9.77;8.90;;;;;;;23.17;22.81;94795.41;4939750;28;102688;-47
2021/12/24 11:10:37;;;;;;;9.60;8.80;;;;;;;23.16;22.48;94793.84;4937741;28;102860;-47
2021/12/24 11:13:10;;;;;;;9.80;9.00;;;;;;;23.16;22.71;94788.50;4938257;28;103740;-48
2021/12/24 11:15:40;;;;;;;9.60;8.73;;;;;;;23.15;22.71;94777.06;4931875;28;102781;-48
2021/12/24 11:18:08;;;;;;;9.40;8.70;;;;;;;23.14;22.88;94780.03;4919576;28;103739;-47
2021/12/24 11:20:35;;;;;;;9.97;9.10;;;;;;;23.13;23.01;94781.13;4920597;28;102844;-47
2021/12/24 11:23:07;;;;;;;9.33;8.57;;;;;;;23.10;22.99;94772.66;4913986;28;102946;-47
2021/12/24 11:25:39;;;;;;;8.40;7.70;;;;;;;23.09;23.15;94771.09;4919658;28;103383;-47
2021/12/24 11:28:06;;;;;;;9.57;8.73;;;;;;;23.08;23.44;94755.44;4920545;28;102786;-48
2021/12/24 11:30:34;;;;;;;9.33;8.50;;;;;;;23.07;23.23;94754.66;4920244;28;102722;-48
2021/12/24 11:32:59;;;;;;;9.77;8.87;;;;;;;23.06;23.08;94749.63;4915333;28;103092;-48
2021/12/24 11:35:26;;;;;;;10.10;9.23;;;;;;;23.04;23.04;94757.94;4919858;28;102750;-48
2021/12/24 11:37:53;;;;;;;9.47;8.67;;;;;;;23.03;23.17;94748.38;4919873;28;103274;-47
2021/12/24 11:40:21;;;;;;;9.47;8.67;;;;;;;23.03;23.11;94747.59;4919593;28;102807;-47
2021/12/24 11:42:51;;;;;;;9.40;8.60;;;;;;;23.00;23.11;94754.31;4920017;28;103178;-48
2021/12/24 11:45:20;;;;;;;8.47;7.73;;;;;;;22.99;23.39;94762.63;4914937;28;104698;-48
2021/12/24 11:47:45;;;;;;;8.70;8.00;;;;;;;22.99;23.53;94757.28;4919122;28;102738;-48
2021/12/24 11:50:11;;;;;;;9.13;8.33;;;;;;;22.97;23.41;94754.94;4920140;28;102765;-47
2021/12/24 11:52:37;;;;;;;8.57;7.87;;;;;;;22.95;23.12;94757.13;4920668;28;103423;-47
2021/12/24 11:55:04;;;;;;;8.53;7.83;;;;;;;22.94;23.34;94760.88;4914823;28;102787;-47
2021/12/24 11:57:29;;;;;;;8.53;7.83;;;;;;;22.93;23.23;94756.66;4918629;28;102744;-47
2021/12/24 11:59:55;;;;;;;8.37;7.67;;;;;;;22.90;23.51;94759.94;4920070;28;102650;-47
2021/12/24 12:02:45;;;;;;;9.07;8.37;;;;;;;22.88;23.48;94758.69;4919449;28;102586;-48
2021/12/24 12:05:15;;;;;;;8.83;8.00;;;;;;;22.88;23.70;94762.16;4918485;28;102934;-47
2021/12/24 12:07:41;;;;;;;8.90;8.10;;;;;;;22.86;23.35;94767.00;4914224;28;102789;-47
2021/12/24 12:10:08;;;;;;;8.07;7.47;;;;;;;22.83;23.52;94770.25;4920578;28;103238;-47
2021/12/24 12:12:35;;;;;;;9.20;8.50;;;;;;;22.80;23.18;94761.00;4918700;28;103098;-47
2021/12/24 12:15:30;;;;;;;8.43;7.73;;;;;;;22.78;23.63;94762.41;4920225;28;102936;-47
2021/12/24 12:18:04;;;;;;;9.00;8.30;;;;;;;22.76;23.76;94765.38;4933237;28;102846;-47
2021/12/24 12:20:46;;;;;;;7.93;7.23;;;;;;;22.75;23.23;94757.69;4938248;28;102805;-47
2021/12/24 12:26:54;;;;;;;7.50;6.90;;;;;;;22.70;23.44;94752.53;4913251;28;102856;-47
2021/12/24 12:29:32;;;;;;;8.50;7.70;;;;;;;22.69;23.78;94732.31;4930698;28;103266;-47
2021/12/24 12:32:06;;;;;;;8.60;7.80;;;;;;;22.68;23.78;94747.50;4938153;28;102627;-46
2021/12/24 12:34:43;;;;;;;8.57;7.77;;;;;;;22.66;23.86;94724.91;4938915;28;102602;-46
2021/12/24 12:37:24;;;;;;;7.97;7.27;;;;;;;22.65;23.51;94726.00;4938692;28;102747;-47
2021/12/24 12:40:17;;;;;;;7.70;7.10;;;;;;;22.64;23.95;94724.44;4932539;28;103291;-47
2021/12/24 12:42:49;;;;;;;8.10;7.40;;;;;;;22.63;23.97;94715.69;4939283;28;102752;-47
2021/12/24 12:45:16;;;;;;;8.70;7.90;;;;;;;22.63;23.89;94725.53;4938286;28;102816;-47
2021/12/24 12:47:53;;;;;;;7.90;7.17;;;;;;;22.61;23.83;94711.75;4937988;28;103308;-47
2021/12/24 12:50:20;;;;;;;7.60;6.90;;;;;;;22.61;23.82;94709.09;4911547;28;102855;-47
2021/12/24 12:52:46;;;;;;;8.37;7.60;;;;;;;22.59;23.86;94712.06;4917582;28;103213;-47
2021/12/24 12:55:28;;;;;;;7.20;6.60;;;;;;;22.58;24.02;94710.50;4918947;28;103177;-47
2021/12/24 12:58:24;;;;;;;7.20;6.60;;;;;;;22.57;24.09;94713.47;4918973;28;102800;-47
2021/12/24 13:01:16;;;;;;;7.97;7.27;;;;;;;22.54;23.93;94704.25;4915024;28;102744;-47